Time;durP1;ratioP1;P1;durP2;ratioP2;P2;SDS_P1;SDS_P2;PMS_P1;PMS_P2;Temp;Humidity;BMP_temperature;BMP_pressure;BME280_temperature;BME280_humidity;BME280_pressure;Samples;Min_cycle;Max_cycle;Signal;HPM_P1;HPM_P2
2023/11/24 00:02:23;;;;;;;11.88;10.45;;;;;;;;;;10454125;27;20529;-57
2023/11/24 00:07:21;;;;;;;10.85;9.15;;;;;;;;;;10457971;27;20074;-56
2023/11/24 00:12:20;;;;;;;11.52;10.13;;;;;;;;;;10455391;27;20078;-56
2023/11/24 00:17:19;;;;;;;10.00;8.80;;;;;;;;;;10450715;27;20065;-57
2023/11/24 00:22:17;;;;;;;10.70;9.60;;;;;;;;;;10447850;27;20070;-57
2023/11/24 00:27:16;;;;;;;11.15;8.77;;;;;;;;;;10450197;27;20062;-57
2023/11/24 00:32:15;;;;;;;9.73;8.32;;;;;;;;;;10451546;27;20082;-56
2023/11/24 00:37:14;;;;;;;9.02;8.13;;;;;;;;;;10453589;27;20499;-57
2023/11/24 00:42:12;;;;;;;9.70;8.70;;;;;;;;;;10454066;27;20077;-56
2023/11/24 00:47:10;;;;;;;10.57;7.70;;;;;;;;;;10453029;27;20507;-56
2023/11/24 00:52:10;;;;;;;8.38;7.45;;;;;;;;;;10444298;27;20079;-57
2023/11/24 00:57:09;;;;;;;8.18;7.38;;;;;;;;;;10443669;27;20059;-55
2023/11/24 01:02:07;;;;;;;8.43;7.63;;;;;;;;;;10463129;27;20050;-55
2023/11/24 01:07:06;;;;;;;8.10;7.30;;;;;;;;;;10464454;27;20523;-59
2023/11/24 01:12:06;;;;;;;8.35;7.45;;;;;;;;;;10444329;27;20074;-57
2023/11/24 01:17:04;;;;;;;7.85;6.80;;;;;;;;;;10459915;27;20074;-59
2023/11/24 01:22:03;;;;;;;7.60;6.80;;;;;;;;;;10424279;27;20051;-56
2023/11/24 01:27:03;;;;;;;7.00;6.30;;;;;;;;;;10457978;27;20073;-57
2023/11/24 01:32:03;;;;;;;7.00;6.15;;;;;;;;;;10457645;27;20086;-57
2023/11/24 01:37:01;;;;;;;15.00;11.10;;;;;;;;;;10458023;27;20066;-54
2023/11/24 01:42:00;;;;;;;7.50;6.30;;;;;;;;;;10457662;27;20074;-55
2023/11/24 01:46:58;;;;;;;7.85;6.53;;;;;;;;;;10440294;27;20046;-57
2023/11/24 01:51:58;;;;;;;6.60;6.00;;;;;;;;;;10461637;27;20078;-56
2023/11/24 01:56:57;;;;;;;8.07;5.82;;;;;;;;;;10460665;27;20075;-52
2023/11/24 02:01:55;;;;;;;7.47;6.78;;;;;;;;;;10439490;27;20101;-56
2023/11/24 02:06:54;;;;;;;6.50;5.90;;;;;;;;;;10440390;27;20487;-56
2023/11/24 02:11:54;;;;;;;6.90;6.30;;;;;;;;;;10458012;27;20082;-57
2023/11/24 02:16:52;;;;;;;5.47;4.97;;;;;;;;;;10461269;27;20077;-58
2023/11/24 02:21:51;;;;;;;7.72;6.93;;;;;;;;;;10449925;27;20411;-54
2023/11/24 02:26:51;;;;;;;6.60;6.00;;;;;;;;;;10441297;27;20764;-57
2023/11/24 02:31:49;;;;;;;6.28;5.70;;;;;;;;;;10459489;27;20493;-56
2023/11/24 02:36:47;;;;;;;5.80;5.30;;;;;;;;;;10439146;27;20050;-56
2023/11/24 02:41:46;;;;;;;7.28;6.57;;;;;;;;;;10443536;27;20058;-56
2023/11/24 02:46:47;;;;;;;8.90;8.00;;;;;;;;;;10444289;27;20087;-57
2023/11/24 02:51:46;;;;;;;7.10;6.25;;;;;;;;;;10457054;27;20070;-54
2023/11/24 02:56:45;;;;;;;7.00;6.30;;;;;;;;;;10438497;27;20050;-56
2023/11/24 03:01:44;;;;;;;12.25;9.18;;;;;;;;;;10445605;27;20443;-56
2023/11/24 03:06:44;;;;;;;6.63;5.93;;;;;;;;;;10458094;27;20071;-52
2023/11/24 03:11:42;;;;;;;7.30;6.38;;;;;;;;;;10456548;27;20078;-53
2023/11/24 03:16:41;;;;;;;6.93;5.68;;;;;;;;;;10458313;27;20074;-56
2023/11/24 03:21:39;;;;;;;16.08;11.02;;;;;;;;;;10438445;27;20043;-57
2023/11/24 03:26:39;;;;;;;5.88;5.38;;;;;;;;;;10454211;27;20066;-57
2023/11/24 03:31:39;;;;;;;10.90;9.05;;;;;;;;;;10456842;27;20079;-52
2023/11/24 03:36:38;;;;;;;7.68;6.88;;;;;;;;;;10458380;27;20070;-57
2023/11/24 03:41:36;;;;;;;9.55;8.52;;;;;;;;;;10445491;27;20067;-57
2023/11/24 03:46:35;;;;;;;6.50;5.90;;;;;;;;;;10452713;27;20063;-57
2023/11/24 03:51:34;;;;;;;7.18;6.47;;;;;;;;;;10451803;27;20073;-57
2023/11/24 03:56:32;;;;;;;6.43;5.75;;;;;;;;;;10454316;27;20054;-56
2023/11/24 04:01:31;;;;;;;6.03;5.20;;;;;;;;;;10456601;27;20533;-55
2023/11/24 04:06:30;;;;;;;8.38;6.20;;;;;;;;;;10436545;27;20507;-56
2023/11/24 04:11:28;;;;;;;6.53;5.85;;;;;;;;;;10444939;27;20066;-56
2023/11/24 04:16:29;;;;;;;7.10;4.95;;;;;;;;;;10455334;27;20051;-56
2023/11/24 04:21:29;;;;;;;7.70;6.75;;;;;;;;;;10436786;27;20053;-56
2023/11/24 04:26:29;;;;;;;6.78;6.15;;;;;;;;;;10437275;27;20046;-56
2023/11/24 04:31:27;;;;;;;6.30;5.70;;;;;;;;;;10453456;27;20078;-57
2023/11/24 04:36:25;;;;;;;11.82;10.23;;;;;;;;;;10454686;27;20040;-58
2023/11/24 04:41:24;;;;;;;7.20;5.82;;;;;;;;;;10454231;27;20086;-54
2023/11/24 04:46:23;;;;;;;5.93;5.30;;;;;;;;;;10453228;27;20062;-57
2023/11/24 04:51:22;;;;;;;6.03;5.43;;;;;;;;;;10455893;27;20484;-58
2023/11/24 04:56:20;;;;;;;7.10;6.40;;;;;;;;;;10453799;27;20063;-55
2023/11/24 05:01:18;;;;;;;6.30;5.70;;;;;;;;;;10445195;27;20075;-56
2023/11/24 05:06:18;;;;;;;6.07;5.43;;;;;;;;;;10454755;27;20070;-57
2023/11/24 05:11:16;;;;;;;7.65;5.25;;;;;;;;;;10452222;27;20511;-56
2023/11/24 05:16:15;;;;;;;5.78;5.28;;;;;;;;;;10450451;27;20487;-56
2023/11/24 05:21:14;;;;;;;7.50;6.70;;;;;;;;;;10456258;27;20475;-56
2023/11/24 05:26:13;;;;;;;25.17;19.73;;;;;;;;;;10453638;27;20085;-57
2023/11/24 05:31:12;;;;;;;14.73;13.43;;;;;;;;;;10453913;27;20058;-57
2023/11/24 05:36:11;;;;;;;13.75;12.45;;;;;;;;;;10457801;27;20082;-57
2023/11/24 05:41:09;;;;;;;6.65;5.80;;;;;;;;;;10460416;27;20069;-57
2023/11/24 05:46:09;;;;;;;17.45;15.75;;;;;;;;;;10457951;27;20179;-56
2023/11/24 05:51:07;;;;;;;11.23;10.13;;;;;;;;;;10450902;27;20062;-56
2023/11/24 05:56:06;;;;;;;12.27;11.27;;;;;;;;;;10456204;27;20081;-57
2023/11/24 06:01:05;;;;;;;6.35;5.75;;;;;;;;;;10455220;27;20078;-57
2023/11/24 06:06:05;;;;;;;9.18;7.90;;;;;;;;;;10438254;27;20070;-55
2023/11/24 06:11:04;;;;;;;14.70;10.10;;;;;;;;;;10447500;27;20524;-56
2023/11/24 06:16:02;;;;;;;9.43;8.43;;;;;;;;;;10434524;27;20078;-58
2023/11/24 06:21:01;;;;;;;9.93;7.40;;;;;;;;;;10431819;27;20066;-55
2023/11/24 06:26:00;;;;;;;9.25;8.32;;;;;;;;;;10433470;27;20070;-56
2023/11/24 06:31:00;;;;;;;14.15;11.70;;;;;;;;;;10430070;27;20451;-53
2023/11/24 06:36:00;;;;;;;17.38;9.65;;;;;;;;;;10436391;27;20438;-54
2023/11/24 06:40:58;;;;;;;9.02;8.13;;;;;;;;;;10457847;27;20074;-55
2023/11/24 06:45:58;;;;;;;9.65;8.75;;;;;;;;;;10448508;27;20067;-55
2023/11/24 06:50:56;;;;;;;8.65;7.72;;;;;;;;;;10438277;27;20543;-56
2023/11/24 06:55:54;;;;;;;9.20;7.05;;;;;;;;;;10431668;27;20093;-51
2023/11/24 07:00:52;;;;;;;7.68;6.78;;;;;;;;;;10431736;27;20074;-54
2023/11/24 07:05:52;;;;;;;7.05;6.40;;;;;;;;;;10429081;27;20524;-50
2023/11/24 07:10:50;;;;;;;8.35;7.10;;;;;;;;;;10430269;27;20071;-56
2023/11/24 07:15:50;;;;;;;10.57;7.00;;;;;;;;;;10441473;27;20086;-55
2023/11/24 07:20:48;;;;;;;9.30;7.28;;;;;;;;;;10455175;27;20529;-52
2023/11/24 07:25:49;;;;;;;9.35;7.70;;;;;;;;;;10459079;27;20082;-55
2023/11/24 07:30:48;;;;;;;15.65;11.90;;;;;;;;;;10450323;27;20092;-57
2023/11/24 07:35:47;;;;;;;7.40;6.65;;;;;;;;;;10457132;27;20062;-54
2023/11/24 07:40:45;;;;;;;11.63;10.07;;;;;;;;;;10447829;27;20074;-56
2023/11/24 07:45:50;;;;;;;12.07;10.80;;;;;;;;;;10446379;27;20086;-54
2023/11/24 07:50:49;;;;;;;9.43;8.45;;;;;;;;;;10449795;27;20077;-56
2023/11/24 07:55:49;;;;;;;10.90;8.45;;;;;;;;;;10450913;27;20070;-57
2023/11/24 08:00:48;;;;;;;9.95;8.95;;;;;;;;;;10453972;27;20086;-56
2023/11/24 08:05:50;;;;;;;12.60;11.13;;;;;;;;;;10445534;27;20079;-56
2023/11/24 08:10:49;;;;;;;11.50;8.98;;;;;;;;;;10448378;27;20070;-57
2023/11/24 08:15:47;;;;;;;25.52;18.55;;;;;;;;;;10451746;27;20070;-57
2023/11/24 08:20:46;;;;;;;9.57;8.52;;;;;;;;;;10450996;27;20082;-54
2023/11/24 08:25:45;;;;;;;22.95;15.65;;;;;;;;;;10455205;27;20079;-55
2023/11/24 08:30:43;;;;;;;14.98;12.43;;;;;;;;;;10454027;27;20074;-57
2023/11/24 08:35:42;;;;;;;34.53;27.83;;;;;;;;;;10456055;27;20078;-55
2023/11/24 08:40:41;;;;;;;18.75;13.30;;;;;;;;;;10456610;27;20066;-57
2023/11/24 08:45:39;;;;;;;16.52;13.10;;;;;;;;;;10452516;27;20094;-57
2023/11/24 08:50:38;;;;;;;13.40;10.18;;;;;;;;;;10454071;27;20476;-56
2023/11/24 08:55:36;;;;;;;19.95;15.15;;;;;;;;;;10453513;27;20093;-56
2023/11/24 09:00:36;;;;;;;18.98;11.77;;;;;;;;;;10452864;27;20093;-55
2023/11/24 09:05:34;;;;;;;13.90;8.85;;;;;;;;;;10453575;27;20063;-56
2023/11/24 09:10:33;;;;;;;8.18;7.38;;;;;;;;;;10456592;27;20062;-56
2023/11/24 09:15:31;;;;;;;14.48;10.65;;;;;;;;;;10460788;27;20070;-57
2023/11/24 09:20:31;;;;;;;15.90;12.90;;;;;;;;;;10462432;27;20067;-55
2023/11/24 09:25:29;;;;;;;13.07;11.70;;;;;;;;;;10461173;27;20085;-57
2023/11/24 09:30:28;;;;;;;12.68;10.68;;;;;;;;;;10463326;27;20547;-57
2023/11/24 09:35:27;;;;;;;8.70;7.80;;;;;;;;;;10462087;27;20083;-56
2023/11/24 09:40:26;;;;;;;9.75;8.65;;;;;;;;;;10461344;27;20062;-57
2023/11/24 09:45:26;;;;;;;7.65;6.95;;;;;;;;;;10460920;27;20062;-57
2023/11/24 09:50:25;;;;;;;8.52;7.70;;;;;;;;;;10458323;27;20043;-57
2023/11/24 09:55:25;;;;;;;10.13;8.85;;;;;;;;;;10460204;27;20066;-57
2023/11/24 10:00:27;;;;;;;9.10;7.80;;;;;;;;;;10455036;27;20077;-56
2023/11/24 10:05:26;;;;;;;11.68;10.05;;;;;;;;;;10458606;27;20078;-55
2023/11/24 10:10:25;;;;;;;13.05;9.73;;;;;;;;;;10461904;27;20097;-58
2023/11/24 10:15:24;;;;;;;12.95;10.88;;;;;;;;;;10460649;27;20074;-55
2023/11/24 10:20:28;;;;;;;10.35;8.27;;;;;;;;;;10460088;27;20063;-54
2023/11/24 10:25:28;;;;;;;18.23;12.60;;;;;;;;;;10460845;27;20062;-54
2023/11/24 10:30:27;;;;;;;31.75;27.20;;;;;;;;;;10460542;27;20062;-56
2023/11/24 10:35:27;;;;;;;14.43;10.75;;;;;;;;;;10447218;27;20067;-56
2023/11/24 10:40:26;;;;;;;12.98;9.48;;;;;;;;;;10448654;27;20058;-55
2023/11/24 10:45:25;;;;;;;11.82;10.70;;;;;;;;;;10458513;27;20557;-54
2023/11/24 10:50:26;;;;;;;14.48;9.63;;;;;;;;;;10458794;27;20071;-51
2023/11/24 10:55:30;;;;;;;22.45;14.02;;;;;;;;;;10457176;27;20066;-50
2023/11/24 11:00:28;;;;;;;9.77;8.70;;;;;;;;;;10457139;27;20077;-56
2023/11/24 11:05:33;;;;;;;8.50;7.60;;;;;;;;;;10458616;27;20070;-55
2023/11/24 11:10:33;;;;;;;;;;;;;;;;;;10458386;27;20059;-57
2023/11/24 11:15:33;;;;;;;13.55;10.07;;;;;;;;;;10456186;27;19965;-54
2023/11/24 11:20:34;;;;;;;10.90;9.82;;;;;;;;;;10450286;27;20082;-50
2023/11/24 11:25:39;;;;;;;9.40;7.53;;;;;;;;;;10446681;27;20464;-56
2023/11/24 11:30:38;;;;;;;;;;;;;;;;;;10451570;27;20101;-53
2023/11/24 11:35:41;;;;;;;9.45;7.78;;;;;;;;;;10417837;27;19963;-54
2023/11/24 11:40:44;;;;;;;7.30;6.53;;;;;;;;;;10445345;27;20074;-50
2023/11/24 11:45:47;;;;;;;8.15;5.63;;;;;;;;;;10445739;27;20070;-54
2023/11/24 11:50:50;;;;;;;9.77;6.93;;;;;;;;;;10450462;27;20172;-55
2023/11/24 11:55:49;;;;;;;8.70;7.22;;;;;;;;;;10455386;27;20091;-57
2023/11/24 12:00:48;;;;;;;8.10;7.30;;;;;;;;;;10452713;27;20075;-56
2023/11/24 12:05:48;;;;;;;12.60;11.30;;;;;;;;;;10453266;27;20071;-54
2023/11/24 12:10:47;;;;;;;10.35;7.43;;;;;;;;;;10444531;27;21401;-57
2023/11/24 12:15:46;;;;;;;8.80;7.57;;;;;;;;;;10432512;27;20075;-56
2023/11/24 12:20:44;;;;;;;12.60;7.60;;;;;;;;;;10444292;27;20546;-53
2023/11/24 12:25:44;;;;;;;7.75;6.65;;;;;;;;;;10439733;27;20066;-55
2023/11/24 12:30:43;;;;;;;13.15;9.02;;;;;;;;;;10447430;27;20070;-53
2023/11/24 12:35:45;;;;;;;11.65;8.60;;;;;;;;;;10454458;27;20077;-56
2023/11/24 12:40:45;;;;;;;12.55;7.72;;;;;;;;;;10449832;27;20062;-47
2023/11/24 12:45:44;;;;;;;10.68;5.85;;;;;;;;;;10452526;27;20101;-52
2023/11/24 12:50:42;;;;;;;9.07;5.32;;;;;;;;;;10456758;27;20071;-54
2023/11/24 12:55:41;;;;;;;9.60;5.30;;;;;;;;;;10447458;27;20078;-48
2023/11/24 13:00:42;;;;;;;7.80;5.30;;;;;;;;;;10455985;27;20082;-51
2023/11/24 13:05:40;;;;;;;10.38;7.18;;;;;;;;;;10465478;27;20047;-49
2023/11/24 13:10:40;;;;;;;9.13;5.97;;;;;;;;;;10461767;27;20073;-53
2023/11/24 13:15:41;;;;;;;10.00;7.13;;;;;;;;;;10462143;27;20078;-47
2023/11/24 13:20:40;;;;;;;8.80;6.40;;;;;;;;;;10459196;27;20440;-50
2023/11/24 13:25:38;;;;;;;8.23;6.50;;;;;;;;;;10457766;27;20076;-51
2023/11/24 13:30:37;;;;;;;14.65;11.05;;;;;;;;;;10450437;27;20059;-53
2023/11/24 13:35:38;;;;;;;9.13;7.13;;;;;;;;;;10457771;27;20081;-55
2023/11/24 13:40:37;;;;;;;13.50;6.68;;;;;;;;;;10459172;27;20554;-53
2023/11/24 13:45:35;;;;;;;10.50;8.65;;;;;;;;;;10459429;27;20467;-56
2023/11/24 13:50:34;;;;;;;8.05;5.45;;;;;;;;;;10457309;27;20498;-56
2023/11/24 13:55:36;;;;;;;6.20;5.32;;;;;;;;;;10454818;27;20082;-57
2023/11/24 14:00:36;;;;;;;5.90;4.75;;;;;;;;;;10456274;27;20464;-56
2023/11/24 14:05:34;;;;;;;6.55;5.88;;;;;;;;;;10458064;27;20504;-55
2023/11/24 14:10:34;;;;;;;11.05;7.35;;;;;;;;;;10454414;27;20067;-54
2023/11/24 14:15:32;;;;;;;8.38;6.50;;;;;;;;;;10456185;27;20100;-57
2023/11/24 14:20:30;;;;;;;8.35;7.43;;;;;;;;;;10457980;27;20039;-58
2023/11/24 14:25:30;;;;;;;9.93;7.07;;;;;;;;;;10455770;27;20454;-57
2023/11/24 14:30:33;;;;;;;8.38;7.57;;;;;;;;;;10452103;27;20462;-57
2023/11/24 14:35:32;;;;;;;37.22;29.55;;;;;;;;;;10449168;27;20079;-57
2023/11/24 14:40:32;;;;;;;14.95;12.95;;;;;;;;;;10458094;27;20069;-57
2023/11/24 14:45:33;;;;;;;16.20;14.35;;;;;;;;;;10454412;27;20078;-54
2023/11/24 14:50:31;;;;;;;11.48;9.43;;;;;;;;;;10457448;27;20645;-56
2023/11/24 14:55:30;;;;;;;18.52;16.65;;;;;;;;;;10454628;27;20589;-57
2023/11/24 15:00:33;;;;;;;19.70;17.70;;;;;;;;;;10456082;27;20075;-56
2023/11/24 15:05:34;;;;;;;21.38;18.20;;;;;;;;;;10453433;27;20111;-58
2023/11/24 15:10:32;;;;;;;14.73;11.45;;;;;;;;;;10457280;27;20074;-56
2023/11/24 15:15:30;;;;;;;24.10;18.60;;;;;;;;;;10458465;27;20498;-55
2023/11/24 15:20:32;;;;;;;20.77;18.50;;;;;;;;;;10459255;27;20531;-56
2023/11/24 15:25:37;;;;;;;27.15;19.13;;;;;;;;;;10455238;27;20066;-56
2023/11/24 15:30:35;;;;;;;31.50;27.95;;;;;;;;;;10456369;27;20058;-57
2023/11/24 15:35:34;;;;;;;20.45;16.70;;;;;;;;;;10440767;27;20070;-56
2023/11/24 15:40:33;;;;;;;19.38;12.93;;;;;;;;;;10446994;27;20058;-56
2023/11/24 15:45:31;;;;;;;16.25;10.63;;;;;;;;;;10448033;27;20086;-53
2023/11/24 15:50:30;;;;;;;8.10;7.30;;;;;;;;;;10447395;27;20171;-57
2023/11/24 15:55:28;;;;;;;17.65;13.93;;;;;;;;;;10451590;27;20105;-55
2023/11/24 16:00:32;;;;;;;14.70;12.85;;;;;;;;;;10453047;27;20080;-58
2023/11/24 16:05:32;;;;;;;27.60;21.75;;;;;;;;;;10454940;27;20074;-58
2023/11/24 16:10:35;;;;;;;11.32;9.90;;;;;;;;;;10455725;27;20134;-57
2023/11/24 16:15:35;;;;;;;13.18;11.07;;;;;;;;;;10454812;27;20066;-57
2023/11/24 16:20:33;;;;;;;12.35;10.63;;;;;;;;;;10456409;27;20432;-56
2023/11/24 16:25:32;;;;;;;15.13;11.25;;;;;;;;;;10448211;27;20070;-57
2023/11/24 16:30:30;;;;;;;19.25;12.85;;;;;;;;;;10452640;27;20070;-58
2023/11/24 16:35:30;;;;;;;10.00;8.38;;;;;;;;;;10445123;27;20067;-57
2023/11/24 16:40:28;;;;;;;17.13;14.32;;;;;;;;;;10442187;27;20075;-57
2023/11/24 16:45:27;;;;;;;27.17;17.42;;;;;;;;;;10435088;27;20475;-57
2023/11/24 16:50:25;;;;;;;21.35;16.83;;;;;;;;;;10456092;27;20071;-58
2023/11/24 16:55:25;;;;;;;19.25;14.77;;;;;;;;;;10444112;27;20065;-57
2023/11/24 17:00:23;;;;;;;29.80;20.55;;;;;;;;;;10439960;27;20082;-57
2023/11/24 17:05:22;;;;;;;20.70;13.90;;;;;;;;;;10431289;27;20073;-58
2023/11/24 17:10:20;;;;;;;13.82;11.30;;;;;;;;;;10438194;27;20074;-58
2023/11/24 17:15:20;;;;;;;26.55;24.00;;;;;;;;;;10447569;27;20075;-58
2023/11/24 17:20:18;;;;;;;16.67;14.63;;;;;;;;;;10448835;27;20092;-58
2023/11/24 17:25:17;;;;;;;9.85;6.63;;;;;;;;;;10450815;27;20055;-58
2023/11/24 17:30:33;;;;;;;14.35;10.85;;;;;;;;;;10456376;27;20067;-58
2023/11/24 17:35:32;;;;;;;14.68;12.95;;;;;;;;;;10454859;27;20082;-57
2023/11/24 17:40:30;;;;;;;16.23;11.30;;;;;;;;;;10458606;27;20077;-57
2023/11/24 17:45:28;;;;;;;28.42;18.45;;;;;;;;;;10455735;27;20468;-57
2023/11/24 17:50:28;;;;;;;36.20;26.00;;;;;;;;;;10455800;27;20062;-57
2023/11/24 17:55:30;;;;;;;31.98;23.08;;;;;;;;;;10452890;27;20071;-57
2023/11/24 18:00:31;;;;;;;18.17;14.27;;;;;;;;;;10445848;27;20495;-57
2023/11/24 18:05:31;;;;;;;11.93;9.38;;;;;;;;;;10456027;27;20075;-57
2023/11/24 18:10:30;;;;;;;11.30;6.60;;;;;;;;;;10459216;27;20074;-57
2023/11/24 18:15:28;;;;;;;7.00;5.55;;;;;;;;;;10457652;27;20067;-57
2023/11/24 18:20:27;;;;;;;9.40;6.88;;;;;;;;;;10456850;27;20062;-56
2023/11/24 18:25:26;;;;;;;8.77;7.63;;;;;;;;;;10457718;27;20066;-57
2023/11/24 18:30:25;;;;;;;9.05;8.13;;;;;;;;;;10451228;27;20074;-58
2023/11/24 18:35:23;;;;;;;15.60;12.27;;;;;;;;;;10450051;27;20963;-58
2023/11/24 18:40:21;;;;;;;8.00;7.25;;;;;;;;;;10451645;27;20071;-58
2023/11/24 18:45:21;;;;;;;10.10;7.78;;;;;;;;;;10453740;27;20078;-58
2023/11/24 18:50:20;;;;;;;12.38;9.75;;;;;;;;;;10453834;27;20082;-56
2023/11/24 18:55:18;;;;;;;11.13;10.02;;;;;;;;;;10458723;27;20077;-57
2023/11/24 19:00:18;;;;;;;56.55;41.10;;;;;;;;;;10457940;27;20082;-58
2023/11/24 19:05:19;;;;;;;11.05;10.05;;;;;;;;;;10455327;27;20078;-57
2023/11/24 19:10:18;;;;;;;19.45;17.30;;;;;;;;;;10455628;27;20500;-57
2023/11/24 19:15:17;;;;;;;15.30;13.30;;;;;;;;;;10455612;27;20074;-58
2023/11/24 19:20:17;;;;;;;13.30;12.00;;;;;;;;;;10454983;27;20523;-56
2023/11/24 19:25:18;;;;;;;17.30;15.50;;;;;;;;;;10441956;27;20101;-56
2023/11/24 19:30:16;;;;;;;51.38;47.03;;;;;;;;;;10448874;27;20493;-58
2023/11/24 19:35:15;;;;;;;45.45;41.05;;;;;;;;;;10454586;27;20078;-54
2023/11/24 19:40:14;;;;;;;20.60;14.35;;;;;;;;;;10449637;27;20078;-54
2023/11/24 19:45:13;;;;;;;63.53;42.08;;;;;;;;;;10453327;27;20077;-56
2023/11/24 19:50:12;;;;;;;80.10;48.20;;;;;;;;;;10453571;27;20073;-50
2023/11/24 19:55:10;;;;;;;55.38;34.75;;;;;;;;;;10452046;27;20073;-55
2023/11/24 20:00:09;;;;;;;20.17;16.48;;;;;;;;;;10451895;27;20070;-57
2023/11/24 20:05:10;;;;;;;33.38;29.98;;;;;;;;;;10440901;27;20078;-55
2023/11/24 20:10:09;;;;;;;27.08;20.02;;;;;;;;;;10424833;27;20100;-55
2023/11/24 20:15:07;;;;;;;30.20;21.90;;;;;;;;;;10452999;27;20066;-57
2023/11/24 20:20:08;;;;;;;15.77;11.48;;;;;;;;;;10450397;27;20079;-55
2023/11/24 20:25:08;;;;;;;17.13;12.43;;;;;;;;;;10453236;27;20105;-55
2023/11/24 20:30:11;;;;;;;34.30;28.48;;;;;;;;;;10447651;27;20168;-55
2023/11/24 20:35:10;;;;;;;30.95;27.20;;;;;;;;;;10448876;27;20456;-53
2023/11/24 20:40:11;;;;;;;41.08;30.08;;;;;;;;;;10434985;27;20093;-55
2023/11/24 20:45:10;;;;;;;32.58;19.92;;;;;;;;;;10448045;27;20507;-52
2023/11/24 20:50:08;;;;;;;18.63;15.38;;;;;;;;;;10445306;27;20077;-53
2023/11/24 20:55:08;;;;;;;41.70;29.55;;;;;;;;;;10452595;27;20066;-55
2023/11/24 21:00:10;;;;;;;19.20;15.85;;;;;;;;;;10451221;27;20728;-56
2023/11/24 21:05:11;;;;;;;15.23;11.52;;;;;;;;;;10456245;27;20066;-57
2023/11/24 21:10:11;;;;;;;11.77;10.57;;;;;;;;;;10456083;27;20530;-56
2023/11/24 21:15:14;;;;;;;15.98;11.85;;;;;;;;;;10456210;27;20066;-54
2023/11/24 21:20:14;;;;;;;13.80;10.85;;;;;;;;;;10458338;27;20074;-55
2023/11/24 21:25:13;;;;;;;13.63;12.02;;;;;;;;;;10456755;27;20066;-52
2023/11/24 21:30:13;;;;;;;12.60;11.30;;;;;;;;;;10453727;27;20078;-52
2023/11/24 21:35:11;;;;;;;14.23;12.75;;;;;;;;;;10455549;27;20314;-55
2023/11/24 21:40:12;;;;;;;22.60;20.13;;;;;;;;;;10458920;27;20069;-53
2023/11/24 21:45:12;;;;;;;23.92;20.35;;;;;;;;;;10442901;27;20081;-57
2023/11/24 21:50:13;;;;;;;21.33;18.13;;;;;;;;;;10444463;27;20067;-58
2023/11/24 21:55:13;;;;;;;15.07;13.65;;;;;;;;;;10442186;27;20067;-58
2023/11/24 22:00:17;;;;;;;14.98;13.52;;;;;;;;;;10445245;27;20089;-58
2023/11/24 22:05:15;;;;;;;16.73;15.00;;;;;;;;;;10459827;27;20085;-57
2023/11/24 22:10:14;;;;;;;13.63;12.32;;;;;;;;;;10460225;27;20074;-56
2023/11/24 22:15:14;;;;;;;14.68;12.25;;;;;;;;;;10459720;27;20463;-59
2023/11/24 22:20:14;;;;;;;13.38;11.90;;;;;;;;;;10459855;27;20071;-56
2023/11/24 22:25:13;;;;;;;15.90;12.07;;;;;;;;;;10458077;27;20460;-57
2023/11/24 22:30:12;;;;;;;17.20;13.80;;;;;;;;;;10461388;27;20055;-57
2023/11/24 22:35:12;;;;;;;14.30;12.80;;;;;;;;;;10455178;27;20063;-55
2023/11/24 22:40:11;;;;;;;17.50;15.80;;;;;;;;;;10456284;27;20062;-58
2023/11/24 22:45:10;;;;;;;18.00;14.80;;;;;;;;;;10456097;27;20078;-57
2023/11/24 22:50:09;;;;;;;11.85;10.65;;;;;;;;;;10453963;27;20066;-57
2023/11/24 22:55:10;;;;;;;13.05;11.65;;;;;;;;;;10450156;27;20086;-57
2023/11/24 23:00:30;;;;;;;15.00;13.35;;;;;;;;;;10453757;27;20078;-57
2023/11/24 23:05:28;;;;;;;32.90;29.33;;;;;;;;;;10459980;27;20506;-57
2023/11/24 23:10:30;;;;;;;26.13;23.45;;;;;;;;;;10456481;27;20510;-56
2023/11/24 23:15:31;;;;;;;27.45;23.70;;;;;;;;;;10457830;27;20089;-56
2023/11/24 23:20:29;;;;;;;42.45;36.30;;;;;;;;;;10460746;27;20066;-57
2023/11/24 23:25:28;;;;;;;20.05;17.30;;;;;;;;;;10458137;27;20066;-58
2023/11/24 23:30:27;;;;;;;15.02;13.25;;;;;;;;;;10455612;27;20478;-58
2023/11/24 23:35:25;;;;;;;11.38;9.90;;;;;;;;;;10455751;27;20098;-58
2023/11/24 23:40:24;;;;;;;12.80;11.50;;;;;;;;;;10451173;27;20083;-57
2023/11/24 23:45:25;;;;;;;17.25;12.52;;;;;;;;;;10453534;27;20046;-55
2023/11/24 23:50:24;;;;;;;11.80;10.65;;;;;;;;;;10453531;27;20518;-57
2023/11/24 23:55:28;;;;;;;;;;;;;;;;;;10457752;27;20067;-57
